Time;durP1;ratioP1;P1;durP2;ratioP2;P2;SDS_P1;SDS_P2;PMS_P1;PMS_P2;Temp;Humidity;BMP_temperature;BMP_pressure;BME280_temperature;BME280_humidity;BME280_pressure;Samples;Min_cycle;Max_cycle;Signal;HPM_P1;HPM_P2
2023/06/14 00:00:52;;;;;;;;;;;;;;;21.31;36.79;100290.75;4923204;28;7237;-72
2023/06/14 00:03:21;;;;;;;;;;;;;;;21.35;36.85;100293.34;4924462;29;7425;-73
2023/06/14 00:05:48;;;;;;;;;;;;;;;21.44;36.51;100289.91;4924253;28;6816;-73
2023/06/14 00:08:14;;;;;;;;;;;;;;;21.53;36.27;100294.25;4936681;28;6796;-73
2023/06/14 00:10:41;;;;;;;;;;;;;;;21.61;36.50;100291.63;4920636;28;6788;-73
2023/06/14 00:13:08;;;;;;;;;;;;;;;21.69;35.95;100289.09;4922668;29;7474;-73
2023/06/14 00:15:35;;;;;;;;;;;;;;;21.76;36.07;100291.69;4930203;28;6999;-73
2023/06/14 00:18:02;;;;;;;;;;;;;;;21.83;36.05;100291.69;4921263;28;6877;-73
2023/06/14 00:20:30;;;;;;;;;;;;;;;21.86;35.82;100291.69;4936463;28;6971;-72
2023/06/14 00:22:56;;;;;;;;;;;;;;;21.83;35.85;100296.91;4923001;28;7040;-72
2023/06/14 00:25:26;;;;;;;;;;;;;;;21.76;36.47;100285.59;4899916;29;7068;-73
2023/06/14 00:27:54;;;;;;;;;;;;;;;21.69;36.38;100289.94;4921128;28;8522;-73
2023/06/14 00:30:20;;;;;;;;;;;;;;;21.59;36.67;100289.06;4890894;28;6880;-72
2023/06/14 00:32:47;;;;;;;;;;;;;;;21.49;36.95;100290.78;4937689;28;7171;-72
2023/06/14 00:35:14;;;;;;;;;;;;;;;21.37;37.34;100282.94;4931168;28;7015;-74
2023/06/14 00:37:40;;;;;;;;;;;;;;;21.27;37.73;100294.22;4925308;29;7719;-73
2023/06/14 00:40:06;;;;;;;;;;;;;;;21.13;37.78;100295.03;4915541;28;6969;-73
2023/06/14 00:42:33;;;;;;;;;;;;;;;21.02;38.27;100297.63;4938880;28;6784;-72
2023/06/14 00:44:59;;;;;;;;;;;;;;;20.93;38.37;100300.19;4917386;29;7303;-72
2023/06/14 00:47:26;;;;;;;;;;;;;;;20.83;38.49;100294.06;4938187;28;6871;-72
2023/06/14 00:49:54;;;;;;;;;;;;;;;20.73;39.06;100303.56;4924297;29;6872;-73
2023/06/14 00:52:24;;;;;;;;;;;;;;;20.63;39.21;100305.25;4922641;29;7218;-72
2023/06/14 00:54:50;;;;;;;;;;;;;;;20.55;39.37;100301.72;4926433;29;6820;-72
2023/06/14 00:57:16;;;;;;;;;;;;;;;20.44;39.51;100298.19;4924790;28;6851;-73
2023/06/14 00:59:45;;;;;;;;;;;;;;;20.36;39.66;100304.22;4926136;29;6832;-72
2023/06/14 01:02:12;;;;;;;;;;;;;;;20.26;40.08;100295.50;4933130;28;6887;-72
2023/06/14 01:04:45;;;;;;;;;;;;;;;20.19;40.20;100303.28;4917654;29;7202;-72
2023/06/14 01:07:36;;;;;;;;;;;;;;;20.08;40.24;100306.63;4936393;28;6816;-72
2023/06/14 01:10:32;;;;;;;;;;;;;;;20.01;39.98;100310.06;4923889;29;6808;-72
2023/06/14 01:13:28;;;;;;;;;;;;;;;19.96;40.15;100311.75;4924423;29;6872;-73
2023/06/14 01:15:56;;;;;;;;;;;;;;;19.94;39.99;100313.47;4919770;29;6800;-73
2023/06/14 01:18:24;;;;;;;;;;;;;;;19.93;40.71;100311.72;4939930;28;6773;-73
2023/06/14 01:20:50;;;;;;;;;;;;;;;19.94;40.13;100314.38;4920830;29;7227;-72
2023/06/14 01:23:20;;;;;;;;;;;;;;;19.95;40.46;100312.63;4937576;28;6780;-73
2023/06/14 01:25:47;;;;;;;;;;;;;;;19.95;40.28;100313.50;4928188;28;6852;-74
2023/06/14 01:28:16;;;;;;;;;;;;;;;19.95;40.62;100326.50;4942316;28;6792;-73
2023/06/14 01:30:48;;;;;;;;;;;;;;;19.92;40.18;100316.03;4922837;28;6892;-73
2023/06/14 01:33:22;;;;;;;;;;;;;;;19.89;40.45;100315.13;4930263;29;6805;-72
2023/06/14 01:35:50;;;;;;;;;;;;;;;19.86;40.60;100321.19;4941976;28;6872;-72
2023/06/14 01:38:22;;;;;;;;;;;;;;;19.80;41.13;100315.94;4941145;28;6873;-73
2023/06/14 01:40:50;;;;;;;;;;;;;;;19.75;41.21;100318.50;4938562;28;6804;-72
2023/06/14 01:43:17;;;;;;;;;;;;;;;19.73;40.88;100315.00;4927803;28;6780;-72
2023/06/14 01:45:47;;;;;;;;;;;;;;;19.68;40.78;100312.38;4926012;28;7435;-72
2023/06/14 01:48:13;;;;;;;;;;;;;;;19.64;40.91;100307.13;4941460;28;6979;-72
2023/06/14 01:50:39;;;;;;;;;;;;;;;19.57;41.45;100312.25;4927041;29;7075;-72
2023/06/14 01:53:09;;;;;;;;;;;;;;;19.50;41.22;100305.25;4924896;28;6788;-72
2023/06/14 01:55:37;;;;;;;;;;;;;;;19.45;41.77;100314.75;4928842;28;6796;-73
2023/06/14 01:58:03;;;;;;;;;;;;;;;19.39;41.76;100307.75;4939908;28;6803;-72
2023/06/14 02:00:29;;;;;;;;;;;;;;;19.34;41.65;100312.03;4943407;28;6800;-72
2023/06/14 02:02:55;;;;;;;;;;;;;;;19.28;41.75;100314.59;4928633;29;7014;-72
2023/06/14 02:05:21;;;;;;;;;;;;;;;19.24;42.04;100321.47;4943169;28;6808;-72
2023/06/14 02:07:47;;;;;;;;;;;;;;;19.23;41.97;100317.13;4942968;28;6963;-72
2023/06/14 02:10:15;;;;;;;;;;;;;;;19.24;42.25;100317.97;4925634;28;7322;-72
2023/06/14 02:12:40;;;;;;;;;;;;;;;19.27;42.07;100315.44;4928601;28;7332;-72
2023/06/14 02:15:08;;;;;;;;;;;;;;;19.27;41.96;100313.69;4939599;28;7008;-72
2023/06/14 02:17:34;;;;;;;;;;;;;;;19.24;41.93;100318.88;4941846;28;6879;-70
2023/06/14 02:20:00;;;;;;;;;;;;;;;19.20;42.26;100327.47;4926787;29;6800;-72
2023/06/14 02:22:26;;;;;;;;;;;;;;;19.14;42.25;100325.66;4920883;28;7078;-72
2023/06/14 02:24:52;;;;;;;;;;;;;;;19.09;42.19;100316.97;4940278;28;6983;-71
2023/06/14 02:27:18;;;;;;;;;;;;;;;19.04;42.46;100321.22;4919589;28;6876;-70
2023/06/14 02:29:43;;;;;;;;;;;;;;;18.97;42.35;100322.84;4937388;28;6783;-71
2023/06/14 02:32:09;;;;;;;;;;;;;;;18.91;42.50;100322.75;4934512;28;6988;-72
2023/06/14 02:34:35;;;;;;;;;;;;;;;18.87;42.50;100321.00;4901132;28;7029;-73
2023/06/14 02:37:04;;;;;;;;;;;;;;;18.85;42.55;100330.50;4920073;28;6792;-72
2023/06/14 02:39:30;;;;;;;;;;;;;;;18.84;42.58;100331.34;4936415;28;8022;-71
2023/06/14 02:41:56;;;;;;;;;;;;;;;18.83;42.65;100329.56;4906340;29;7177;-70
2023/06/14 02:44:27;;;;;;;;;;;;;;;18.81;42.68;100331.28;4937674;28;6911;-72
2023/06/14 02:46:56;;;;;;;;;;;;;;;18.81;43.11;100345.16;4938796;28;7049;-71
2023/06/14 02:49:22;;;;;;;;;;;;;;;18.81;43.15;100331.28;4924623;28;7049;-70
2023/06/14 02:51:48;;;;;;;;;;;;;;;18.81;42.35;100339.09;4917594;28;8773;-74
2023/06/14 02:54:14;;;;;;;;;;;;;;;18.78;42.84;100339.91;4922356;28;7167;-71
2023/06/14 02:56:40;;;;;;;;;;;;;;;18.77;43.09;100335.56;4925194;29;7068;-73
2023/06/14 02:59:07;;;;;;;;;;;;;;;18.73;43.54;100337.28;4925330;29;7200;-71
2023/06/14 03:01:40;;;;;;;;;;;;;;;18.69;43.13;100338.06;4922714;28;7099;-70
2023/06/14 03:04:08;;;;;;;;;;;;;;;18.68;43.19;100346.72;4921745;28;6796;-73
2023/06/14 03:06:33;;;;;;;;;;;;;;;18.66;43.65;100345.81;4903834;29;7003;-71
2023/06/14 03:09:01;;;;;;;;;;;;;;;18.65;42.86;100349.28;4924432;28;6836;-73
2023/06/14 03:11:27;;;;;;;;;;;;;;;18.65;43.61;100349.28;4939335;28;7694;-72
2023/06/14 03:13:53;;;;;;;;;;;;;;;18.67;43.47;100352.75;4937145;28;6990;-73
2023/06/14 03:16:21;;;;;;;;;;;;;;;18.69;43.05;100353.66;4916486;28;6880;-72
2023/06/14 03:18:49;;;;;;;;;;;;;;;18.71;43.01;100351.94;4936594;28;7154;-71
2023/06/14 03:21:15;;;;;;;;;;;;;;;18.74;42.93;100353.72;4936363;28;6800;-71
2023/06/14 03:23:42;;;;;;;;;;;;;;;18.74;43.62;100362.38;4924277;28;8220;-72
2023/06/14 03:26:08;;;;;;;;;;;;;;;18.77;43.35;100361.53;4929523;28;7277;-71
2023/06/14 03:28:34;;;;;;;;;;;;;;;18.79;42.91;100359.84;4910890;28;7255;-73
2023/06/14 03:31:01;;;;;;;;;;;;;;;18.82;43.08;100356.41;4930664;28;6796;-73
2023/06/14 03:33:27;;;;;;;;;;;;;;;18.84;42.71;100354.72;4935406;28;7467;-72
2023/06/14 03:35:52;;;;;;;;;;;;;;;18.87;43.36;100359.94;4931245;28;6963;-72
2023/06/14 03:38:18;;;;;;;;;;;;;;;18.87;42.41;100352.16;4910266;28;7589;-71
2023/06/14 03:40:44;;;;;;;;;;;;;;;18.90;43.07;100357.38;4921835;29;6839;-73
2023/06/14 03:43:10;;;;;;;;;;;;;;;18.95;43.12;100363.50;4920233;29;6853;-73
2023/06/14 03:45:35;;;;;;;;;;;;;;;18.99;43.29;100370.47;4939842;28;6986;-71
2023/06/14 03:48:02;;;;;;;;;;;;;;;19.03;42.88;100362.78;4917075;28;7188;-73
2023/06/14 03:50:28;;;;;;;;;;;;;;;19.08;43.04;100358.50;4904677;28;6978;-73
2023/06/14 03:52:54;;;;;;;;;;;;;;;19.12;42.58;100358.56;4930660;28;6772;-71
2023/06/14 03:55:19;;;;;;;;;;;;;;;19.20;42.92;100360.38;4929041;28;7175;-73
2023/06/14 03:57:45;;;;;;;;;;;;;;;19.25;42.29;100364.78;4915240;28;7534;-71
2023/06/14 04:00:12;;;;;;;;;;;;;;;19.32;42.35;100362.25;4912697;28;7047;-71
2023/06/14 04:02:38;;;;;;;;;;;;;;;19.38;42.22;100367.50;4923411;28;7082;-70
2023/06/14 04:05:05;;;;;;;;;;;;;;;19.43;42.50;100365.84;4921361;28;6780;-72
2023/06/14 04:07:30;;;;;;;;;;;;;;;19.46;42.47;100365.88;4925399;28;6836;-72
2023/06/14 04:09:56;;;;;;;;;;;;;;;19.52;41.99;100373.75;4919155;29;7945;-71
2023/06/14 04:12:22;;;;;;;;;;;;;;;19.57;42.14;100369.44;4916819;29;6777;-70
2023/06/14 04:14:47;;;;;;;;;;;;;;;19.66;42.56;100383.41;4934113;28;7003;-71
2023/06/14 04:17:14;;;;;;;;;;;;;;;19.80;42.68;100375.72;4918147;28;7021;-71
2023/06/14 04:19:39;;;;;;;;;;;;;;;20.01;42.86;100380.31;4935070;28;7136;-70
2023/06/14 04:22:05;;;;;;;;;;;;;;;20.29;42.91;100388.34;4918215;29;6837;-71
2023/06/14 04:24:34;;;;;;;;;;;;;;;20.59;42.90;100379.00;4922563;28;7208;-71
2023/06/14 04:27:01;;;;;;;;;;;;;;;20.92;42.57;100379.22;4937061;28;6808;-70
2023/06/14 04:29:26;;;;;;;;;;;;;;;21.25;41.99;100384.56;4937829;28;6917;-73
2023/06/14 04:31:54;;;;;;;;;;;;;;;21.55;41.59;100385.53;4919224;28;6808;-70
2023/06/14 04:34:21;;;;;;;;;;;;;;;21.78;41.00;100383.84;4925258;29;7297;-72
2023/06/14 04:36:49;;;;;;;;;;;;;;;22.01;40.71;100377.75;4923845;28;7279;-73
2023/06/14 04:39:21;;;;;;;;;;;;;;;22.24;40.13;100389.09;4919468;29;6887;-73
2023/06/14 04:41:47;;;;;;;;;;;;;;;22.44;40.53;100386.47;4918674;28;6804;-70
2023/06/14 04:44:13;;;;;;;;;;;;;;;22.65;39.79;100392.56;4917715;29;6801;-71
2023/06/14 04:46:48;;;;;;;;;;;;;;;22.83;39.53;100386.41;4935597;28;6772;-73
2023/06/14 04:49:17;;;;;;;;;;;;;;;23.02;39.29;100392.44;4921502;29;6832;-71
2023/06/14 04:51:45;;;;;;;;;;;;;;;23.23;39.18;100388.88;4912691;29;7278;-71
2023/06/14 04:54:15;;;;;;;;;;;;;;;23.42;39.12;100388.81;4922623;29;6939;-70
2023/06/14 04:56:42;;;;;;;;;;;;;;;23.58;38.69;100387.00;4924391;29;6958;-74
2023/06/14 04:59:08;;;;;;;;;;;;;;;23.74;38.18;100389.47;4917045;29;6789;-72
2023/06/14 05:01:35;;;;;;;;;;;;;;;23.91;38.08;100382.38;4914897;28;6887;-70
2023/06/14 05:04:00;;;;;;;;;;;;;;;24.06;37.80;100389.28;4936748;28;7159;-70
2023/06/14 05:06:27;;;;;;;;;;;;;;;24.22;38.15;100390.00;4934598;28;6809;-71
2023/06/14 05:08:53;;;;;;;;;;;;;;;24.40;38.22;100380.25;4919960;29;6792;-71
2023/06/14 05:11:19;;;;;;;;;;;;;;;24.62;37.28;100393.13;4936215;28;6920;-71
2023/06/14 05:13:46;;;;;;;;;;;;;;;24.81;37.12;100396.47;4936204;28;6784;-73
2023/06/14 05:16:12;;;;;;;;;;;;;;;25.01;37.29;100395.38;4921482;29;6868;-74
2023/06/14 05:18:40;;;;;;;;;;;;;;;25.20;36.39;100403.84;4916532;29;6785;-73
2023/06/14 05:21:06;;;;;;;;;;;;;;;25.38;35.95;100390.50;4919401;29;6808;-72
2023/06/14 05:23:31;;;;;;;;;;;;;;;25.59;35.45;100399.00;4929900;28;6781;-71
2023/06/14 05:25:57;;;;;;;;;;;;;;;25.79;35.75;100395.22;4936296;28;7043;-71
2023/06/14 05:28:23;;;;;;;;;;;;;;;25.99;35.31;100397.50;4922408;29;8051;-72
2023/06/14 05:30:49;;;;;;;;;;;;;;;26.16;35.19;100393.75;4935006;28;6852;-71
2023/06/14 05:33:15;;;;;;;;;;;;;;;26.34;34.67;100397.84;4933253;28;6944;-73
2023/06/14 05:35:40;;;;;;;;;;;;;;;26.48;34.50;100406.34;4933184;28;6776;-73
2023/06/14 05:38:07;;;;;;;;;;;;;;;26.58;34.33;100403.56;4937038;28;7239;-72
2023/06/14 05:40:33;;;;;;;;;;;;;;;26.66;34.21;100403.41;4926384;29;7052;-72
2023/06/14 05:42:59;;;;;;;;;;;;;;;26.72;33.98;100404.16;4934579;28;6788;-72
2023/06/14 05:45:25;;;;;;;;;;;;;;;26.79;34.04;100404.03;4921083;29;7150;-72
2023/06/14 05:47:52;;;;;;;;;;;;;;;26.81;34.07;100413.63;4916792;29;6796;-72
2023/06/14 05:50:17;;;;;;;;;;;;;;;26.84;33.95;100416.19;4936247;28;6955;-72
2023/06/14 05:52:43;;;;;;;;;;;;;;;26.90;34.01;100425.75;4922134;29;7028;-72
2023/06/14 05:55:11;;;;;;;;;;;;;;;26.90;33.68;100423.13;4939439;28;7107;-71
2023/06/14 05:57:38;;;;;;;;;;;;;;;26.84;33.66;100431.09;4937868;28;7141;-73
2023/06/14 06:00:22;;;;;;;;;;;;;;;26.74;33.64;100426.00;4921872;29;6776;-72
2023/06/14 06:02:48;;;;;;;;;;;;;;;26.58;33.84;100432.47;4913593;29;11950;-72
2023/06/14 06:05:15;;;;;;;;;;;;;;;26.40;33.57;100431.00;4911624;29;7051;-73
2023/06/14 06:07:41;;;;;;;;;;;;;;;26.17;33.68;100438.38;4921906;29;7103;-73
2023/06/14 06:10:08;;;;;;;;;;;;;;;25.95;33.46;100436.97;4926260;29;6934;-73
2023/06/14 06:12:33;;;;;;;;;;;;;;;25.73;33.39;100439.91;4930094;29;6847;-72
2023/06/14 06:14:59;;;;;;;;;;;;;;;25.58;33.54;100446.25;4943939;28;6792;-72
2023/06/14 06:17:26;;;;;;;;;;;;;;;25.44;33.67;100443.78;4927718;29;6868;-72
2023/06/14 06:19:51;;;;;;;;;;;;;;;25.35;33.73;100448.25;4942537;28;6804;-72
2023/06/14 06:22:17;;;;;;;;;;;;;;;25.31;33.55;100453.56;4924438;28;7225;-73
2023/06/14 06:24:43;;;;;;;;;;;;;;;25.24;33.53;100451.00;4927521;29;6832;-72
2023/06/14 06:27:09;;;;;;;;;;;;;;;25.18;34.04;100453.72;4924735;29;7011;-72
2023/06/14 06:29:35;;;;;;;;;;;;;;;25.13;33.88;100450.25;4924729;28;6863;-73
2023/06/14 06:32:01;;;;;;;;;;;;;;;25.10;33.87;100460.81;4940760;28;6975;-73
2023/06/14 06:34:27;;;;;;;;;;;;;;;25.07;33.22;100460.84;4940295;28;6816;-73
2023/06/14 06:36:52;;;;;;;;;;;;;;;25.04;33.51;100459.13;4924551;28;6992;-72
2023/06/14 06:39:18;;;;;;;;;;;;;;;25.02;33.54;100462.63;4939941;28;7035;-71
2023/06/14 06:41:44;;;;;;;;;;;;;;;25.02;33.34;100470.50;4927106;29;6760;-73
2023/06/14 06:44:10;;;;;;;;;;;;;;;25.02;33.31;100473.13;4924481;29;7259;-72
2023/06/14 06:46:40;;;;;;;;;;;;;;;25.05;33.52;100466.09;4943217;28;7206;-72
2023/06/14 06:49:07;;;;;;;;;;;;;;;25.07;32.96;100469.56;4943106;28;6808;-71
2023/06/14 06:51:32;;;;;;;;;;;;;;;25.12;32.63;100471.28;4928264;29;6784;-71
2023/06/14 06:53:58;;;;;;;;;;;;;;;25.17;32.69;100475.59;4935344;28;8089;-72
2023/06/14 06:56:24;;;;;;;;;;;;;;;25.30;32.83;100480.69;4928728;29;7283;-72
2023/06/14 06:58:50;;;;;;;;;;;;;;;25.52;33.04;100491.81;4943026;28;6943;-71
2023/06/14 07:01:17;;;;;;;;;;;;;;;25.78;33.11;100487.94;4940858;28;6796;-73
2023/06/14 07:03:43;;;;;;;;;;;;;;;26.09;32.26;100486.66;4940869;28;6812;-72
2023/06/14 07:06:10;;;;;;;;;;;;;;;26.39;31.95;100484.44;4927845;28;6797;-72
2023/06/14 07:08:36;;;;;;;;;;;;;;;26.64;31.69;100490.16;4941458;28;6975;-73
2023/06/14 07:11:02;;;;;;;;;;;;;;;26.90;31.24;100494.13;4942423;28;6865;-72
2023/06/14 07:13:28;;;;;;;;;;;;;;;27.14;30.48;100492.78;4942689;28;6949;-73
2023/06/14 07:16:04;;;;;;;;;;;;;;;27.43;30.63;100498.38;4940378;28;7095;-73
2023/06/14 07:18:30;;;;;;;;;;;;;;;27.69;30.36;100491.69;4936679;28;7237;-73
2023/06/14 07:20:57;;;;;;;;;;;;;;;27.91;29.48;100493.84;4927815;28;7268;-72
2023/06/14 07:23:23;;;;;;;;;;;;;;;28.13;29.24;100491.56;4921153;29;7498;-73
2023/06/14 07:25:49;;;;;;;;;;;;;;;28.32;29.07;100491.16;4925863;29;6899;-73
2023/06/14 07:28:19;;;;;;;;;;;;;;;28.47;29.35;100493.44;4923695;28;7246;-73
2023/06/14 07:30:44;;;;;;;;;;;;;;;28.68;28.98;100493.78;4932488;28;6970;-73
2023/06/14 07:33:12;;;;;;;;;;;;;;;28.87;29.17;100488.88;4920384;28;7003;-72
2023/06/14 07:35:37;;;;;;;;;;;;;;;29.09;28.36;100499.72;4931838;28;8852;-73
2023/06/14 07:38:03;;;;;;;;;;;;;;;29.34;28.86;100493.75;4919801;29;6799;-72
2023/06/14 07:40:29;;;;;;;;;;;;;;;29.56;28.29;100503.72;4934271;28;7197;-72
2023/06/14 07:42:54;;;;;;;;;;;;;;;29.78;28.34;100501.28;4920884;29;6772;-73
2023/06/14 07:45:20;;;;;;;;;;;;;;;29.97;27.36;100503.34;4923461;28;7614;-73
2023/06/14 07:47:46;;;;;;;;;;;;;;;30.15;27.31;100506.38;4938922;28;7210;-71
2023/06/14 07:50:13;;;;;;;;;;;;;;;30.31;27.59;100497.00;4936410;28;7194;-73
2023/06/14 07:52:39;;;;;;;;;;;;;;;30.41;27.17;100501.97;4932543;28;6800;-73
2023/06/14 07:55:05;;;;;;;;;;;;;;;30.47;27.11;100501.78;4939156;28;6797;-72
2023/06/14 07:57:31;;;;;;;;;;;;;;;30.56;26.50;100506.75;4922434;28;6962;-71
2023/06/14 07:59:57;;;;;;;;;;;;;;;30.71;26.27;100505.41;4920965;29;7261;-71
2023/06/14 08:02:23;;;;;;;;;;;;;;;30.90;26.64;100499.47;4936504;28;6987;-72
2023/06/14 08:04:48;;;;;;;;;;;;;;;31.14;26.39;100502.13;4924243;29;7270;-71
2023/06/14 08:07:14;;;;;;;;;;;;;;;31.41;25.54;100500.28;4920499;28;6764;-71
2023/06/14 08:09:40;;;;;;;;;;;;;;;31.69;25.92;100499.22;4914675;29;7146;-69
2023/06/14 08:12:09;;;;;;;;;;;;;;;32.00;25.39;100497.16;4927295;28;7136;-70
2023/06/14 08:14:35;;;;;;;;;;;;;;;32.29;25.23;100508.34;4902112;29;7012;-72
2023/06/14 08:17:01;;;;;;;;;;;;;;;32.55;24.68;100507.31;4937378;28;6764;-72
2023/06/14 08:19:27;;;;;;;;;;;;;;;32.78;24.55;100500.13;4935692;28;7102;-69
2023/06/14 08:21:54;;;;;;;;;;;;;;;32.97;24.30;100504.66;4936034;28;6796;-70
2023/06/14 08:24:24;;;;;;;;;;;;;;;33.03;23.73;100512.34;4924727;28;7308;-70
2023/06/14 08:26:50;;;;;;;;;;;;;;;33.01;23.39;100506.22;4917409;29;9213;-70
2023/06/14 08:29:16;;;;;;;;;;;;;;;33.03;23.54;100512.34;4922283;29;6975;-71
2023/06/14 08:31:41;;;;;;;;;;;;;;;33.14;23.24;100508.34;4918230;28;7009;-70
2023/06/14 08:34:07;;;;;;;;;;;;;;;33.26;22.82;100507.78;4921018;29;6776;-72
2023/06/14 08:36:33;;;;;;;;;;;;;;;33.32;22.95;100507.50;4934859;28;6848;-73
2023/06/14 08:38:58;;;;;;;;;;;;;;;33.36;22.55;100511.72;4936618;28;7155;-71
2023/06/14 08:41:24;;;;;;;;;;;;;;;33.41;22.16;100508.00;4932922;28;6854;-70
2023/06/14 08:43:51;;;;;;;;;;;;;;;33.42;22.35;100509.75;4923727;28;7266;-70
2023/06/14 08:46:20;;;;;;;;;;;;;;;33.45;22.37;100510.44;4921132;28;6848;-71
2023/06/14 08:48:52;;;;;;;;;;;;;;;33.66;22.17;100502.44;4905042;29;6830;-70
2023/06/14 08:51:24;;;;;;;;;;;;;;;33.89;21.62;100511.94;4918770;28;6828;-71
2023/06/14 08:53:58;;;;;;;;;;;;;;;34.05;21.51;100508.56;4918425;28;6801;-70
2023/06/14 08:56:33;;;;;;;;;;;;;;;34.15;21.30;100504.53;4919108;28;6808;-71
2023/06/14 08:59:03;;;;;;;;;;;;;;;34.24;21.14;100503.22;4920861;29;8070;-72
2023/06/14 09:01:34;;;;;;;;;;;;;;;34.45;21.07;100495.94;4930495;28;6883;-70
2023/06/14 09:04:02;;;;;;;;;;;;;;;34.74;21.31;100498.06;4921761;28;7416;-70
2023/06/14 09:06:28;;;;;;;;;;;;;;;35.03;21.19;100506.31;4937660;28;6792;-70
2023/06/14 09:08:58;;;;;;;;;;;;;;;35.15;20.81;100505.69;4930900;28;7361;-73
2023/06/14 09:11:25;;;;;;;;;;;;;;;35.13;20.51;100507.56;4920167;29;7180;-71
2023/06/14 09:13:51;;;;;;;;;;;;;;;35.25;20.18;100515.84;4921710;29;7695;-70
2023/06/14 09:16:17;;;;;;;;;;;;;;;35.29;20.06;100507.59;4935464;28;7075;-72
2023/06/14 09:18:47;;;;;;;;;;;;;;;35.35;19.89;100510.84;4922933;29;6768;-70
2023/06/14 09:21:15;;;;;;;;;;;;;;;35.44;19.50;100503.22;4926945;29;6993;-70
2023/06/14 09:23:43;;;;;;;;;;;;;;;35.49;18.92;100500.31;4923130;29;6844;-69
2023/06/14 09:26:15;;;;;;;;;;;;;;;35.47;19.15;100501.34;4908992;29;7022;-70
2023/06/14 09:28:47;;;;;;;;;;;;;;;35.46;19.16;100503.16;4934988;28;6796;-70
2023/06/14 09:31:17;;;;;;;;;;;;;;;35.54;18.74;100505.38;4908550;28;6979;-71
2023/06/14 09:33:48;;;;;;;;;;;;;;;35.66;19.17;100503.88;4936163;28;7038;-71
2023/06/14 09:36:22;;;;;;;;;;;;;;;35.69;18.65;100512.56;4923493;29;7003;-71
2023/06/14 09:39:07;;;;;;;;;;;;;;;35.79;18.50;100507.56;4921315;29;6800;-73
2023/06/14 09:41:34;;;;;;;;;;;;;;;35.98;18.47;100503.81;4915713;29;6817;-72
2023/06/14 09:44:02;;;;;;;;;;;;;;;36.20;18.36;100502.59;4917807;29;6977;-71
2023/06/14 09:46:31;;;;;;;;;;;;;;;36.22;18.61;100500.72;4923032;28;6982;-71
2023/06/14 09:49:02;;;;;;;;;;;;;;;36.22;18.13;100482.06;4941479;28;6820;-73
2023/06/14 09:51:32;;;;;;;;;;;;;;;36.48;18.18;100479.63;4919039;28;7271;-71
2023/06/14 09:54:05;;;;;;;;;;;;;;;36.65;17.71;100490.16;4924180;29;6812;-72
2023/06/14 09:56:41;;;;;;;;;;;;;;;36.73;17.71;100483.50;4932123;28;6804;-71
2023/06/14 09:59:09;;;;;;;;;;;;;;;36.65;16.92;100495.50;4942344;28;7061;-71
2023/06/14 10:01:42;;;;;;;;;;;;;;;36.55;16.59;100491.66;4943351;28;6976;-73
2023/06/14 10:04:10;;;;;;;;;;;;;;;36.64;16.48;100488.47;4940326;28;7206;-73
2023/06/14 10:06:40;;;;;;;;;;;;;;;37.02;16.85;100483.53;4915932;28;7245;-73
2023/06/14 10:09:09;;;;;;;;;;;;;;;37.40;15.99;100487.41;4935763;28;6962;-71
2023/06/14 10:11:40;;;;;;;;;;;;;;;37.48;15.45;100488.66;4925079;29;8079;-72
2023/06/14 10:14:07;;;;;;;;;;;;;;;37.37;15.66;100483.09;4938000;28;7085;-73
2023/06/14 10:17:03;;;;;;;;;;;;;;;37.21;15.27;100484.09;4940826;28;6822;-72
2023/06/14 10:19:45;;;;;;;;;;;;;;;37.13;15.27;100486.41;4921339;28;6820;-71
2023/06/14 10:22:25;;;;;;;;;;;;;;;37.08;15.08;100489.34;4924376;28;6879;-72
2023/06/14 10:24:51;;;;;;;;;;;;;;;37.17;15.54;100487.91;4926646;29;6804;-72
2023/06/14 10:27:23;;;;;;;;;;;;;;;37.45;15.89;100483.47;4938270;28;6957;-72
2023/06/14 10:29:58;;;;;;;;;;;;;;;37.87;15.59;100490.66;4921304;29;7148;-74
2023/06/14 10:32:28;;;;;;;;;;;;;;;38.09;14.69;100489.25;4924580;28;6804;-72
2023/06/14 10:35:06;;;;;;;;;;;;;;;38.20;14.72;100489.38;4937553;28;7148;-71
2023/06/14 10:37:32;;;;;;;;;;;;;;;38.22;14.49;100484.78;4941744;28;6899;-72
2023/06/14 10:39:58;;;;;;;;;;;;;;;38.12;14.56;100494.38;4924088;28;6772;-72
2023/06/14 10:42:33;;;;;;;;;;;;;;;37.95;14.57;100492.81;4922584;28;6788;-71
2023/06/14 10:45:00;;;;;;;;;;;;;;;37.71;14.68;100488.97;4943384;28;6974;-71
2023/06/14 10:47:28;;;;;;;;;;;;;;;37.43;14.80;100493.41;4923092;29;6804;-72
2023/06/14 10:50:09;;;;;;;;;;;;;;;37.05;15.48;100496.69;4923082;28;6982;-72
2023/06/14 10:52:42;;;;;;;;;;;;;;;36.69;14.97;100499.69;4937763;28;6897;-72
2023/06/14 10:55:17;;;;;;;;;;;;;;;36.51;15.27;100503.47;4925868;28;7122;-72
2023/06/14 10:57:58;;;;;;;;;;;;;;;36.49;15.79;100492.88;4938734;28;7110;-72
2023/06/14 11:00:30;;;;;;;;;;;;;;;36.61;15.67;100487.78;4920967;28;7010;-71
2023/06/14 11:03:43;;;;;;;;;;;;;;;36.73;15.60;100494.19;4937985;28;6804;-72
2023/06/14 11:06:14;;;;;;;;;;;;;;;36.73;15.92;100495.03;4923864;28;7724;-71
2023/06/14 11:08:58;;;;;;;;;;;;;;;36.72;15.64;100492.47;4931161;28;6943;-72
2023/06/14 11:11:35;;;;;;;;;;;;;;;36.68;16.39;100497.97;4919568;29;7299;-72
2023/06/14 11:14:02;;;;;;;;;;;;;;;36.74;15.78;100495.91;4916726;28;6820;-71
2023/06/14 11:16:28;;;;;;;;;;;;;;;36.67;15.96;100496.25;4934798;28;6920;-72
2023/06/14 11:18:55;;;;;;;;;;;;;;;36.71;15.88;100494.28;4919111;28;6792;-72
2023/06/14 11:21:21;;;;;;;;;;;;;;;36.93;16.35;100498.28;4924343;29;6780;-71
2023/06/14 11:23:51;;;;;;;;;;;;;;;37.04;15.96;100492.28;4928017;29;6789;-71
2023/06/14 11:26:33;;;;;;;;;;;;;;;37.02;15.73;100488.84;4925136;28;6824;-72
2023/06/14 11:29:00;;;;;;;;;;;;;;;36.97;15.89;100487.31;4921281;28;6820;-72
2023/06/14 11:31:30;;;;;;;;;;;;;;;36.95;16.23;100491.91;4901995;28;7023;-72
2023/06/14 11:33:58;;;;;;;;;;;;;;;36.91;16.56;100486.84;4936639;28;6868;-71
2023/06/14 11:36:31;;;;;;;;;;;;;;;36.99;16.52;100489.03;4920497;28;6800;-72
2023/06/14 11:39:06;;;;;;;;;;;;;;;36.96;16.52;100484.75;4918500;29;6970;-72
2023/06/14 11:41:44;;;;;;;;;;;;;;;36.85;16.59;100492.59;4933953;28;6800;-72
2023/06/14 11:44:11;;;;;;;;;;;;;;;36.72;16.68;100492.47;4924802;29;6856;-71
2023/06/14 11:46:38;;;;;;;;;;;;;;;36.64;16.49;100495.59;4925152;29;6784;-72
2023/06/14 11:49:06;;;;;;;;;;;;;;;36.62;16.30;100487.69;4919423;29;7361;-73
2023/06/14 11:51:34;;;;;;;;;;;;;;;36.60;16.44;100494.91;4908647;28;6846;-72
2023/06/14 11:54:05;;;;;;;;;;;;;;;36.52;16.09;100492.69;4921458;28;6991;-71
2023/06/14 11:56:32;;;;;;;;;;;;;;;36.55;16.48;100502.31;4934950;28;7351;-72
2023/06/14 11:58:58;;;;;;;;;;;;;;;36.77;16.84;100490.38;4926935;29;6788;-71
2023/06/14 12:01:24;;;;;;;;;;;;;;;36.85;16.72;100492.59;4939238;28;6776;-72
2023/06/14 12:03:54;;;;;;;;;;;;;;;36.81;15.98;100498.09;4939810;28;6784;-70
2023/06/14 12:06:35;;;;;;;;;;;;;;;36.70;16.36;100497.91;4908207;29;7009;-70
2023/06/14 12:09:10;;;;;;;;;;;;;;;36.56;16.41;100496.06;4920633;29;7170;-70
2023/06/14 12:11:36;;;;;;;;;;;;;;;36.54;16.71;100496.13;4930645;28;7434;-72
2023/06/14 12:14:06;;;;;;;;;;;;;;;36.47;15.93;100491.25;4937584;28;6970;-71
2023/06/14 12:16:34;;;;;;;;;;;;;;;36.58;16.12;100496.81;4935569;28;6969;-71
2023/06/14 12:19:17;;;;;;;;;;;;;;;36.64;16.36;100495.59;4921650;29;6796;-72
2023/06/14 12:21:50;;;;;;;;;;;;;;;36.43;16.03;100487.91;4920565;28;6995;-72
2023/06/14 12:24:16;;;;;;;;;;;;;;;36.28;16.21;100489.69;4933524;28;7071;-72
2023/06/14 12:26:42;;;;;;;;;;;;;;;36.13;15.96;100486.97;4934224;28;7143;-73
2023/06/14 12:29:08;;;;;;;;;;;;;;;36.07;15.99;100497.13;4936555;28;6874;-72
2023/06/14 12:31:34;;;;;;;;;;;;;;;36.06;15.59;100493.63;4904662;29;6996;-71
2023/06/14 12:34:00;;;;;;;;;;;;;;;35.97;15.97;100502.13;4920578;28;7177;-75
2023/06/14 12:36:26;;;;;;;;;;;;;;;35.86;15.68;100495.59;4934377;28;6812;-74
2023/06/14 12:38:54;;;;;;;;;;;;;;;35.90;16.32;100498.94;4932785;28;6784;-72
2023/06/14 12:41:22;;;;;;;;;;;;;;;36.01;16.65;100498.31;4916968;29;7116;-74
2023/06/14 12:43:48;;;;;;;;;;;;;;;36.01;16.43;100487.66;4919400;29;6800;-75
2023/06/14 12:46:13;;;;;;;;;;;;;;;35.92;16.08;100491.72;4917980;28;10076;-75
2023/06/14 12:48:39;;;;;;;;;;;;;;;35.92;16.36;100491.72;4933233;28;6840;-74
2023/06/14 12:51:05;;;;;;;;;;;;;;;36.11;16.09;100483.53;4918259;28;8192;-75
2023/06/14 12:53:31;;;;;;;;;;;;;;;36.31;16.08;100489.47;4927637;28;6984;-72